Time;durP1;ratioP1;P1;durP2;ratioP2;P2;SDS_P1;SDS_P2;PMS_P1;PMS_P2;Temp;Humidity;BMP_temperature;BMP_pressure;BME280_temperature;BME280_humidity;BME280_pressure;Samples;Min_cycle;Max_cycle;Signal;HPM_P1;HPM_P2
2021/01/21 00:02:05;;;;;;;;;;;5.00;92.80;;;;;;5056628;28;19916;-88
2021/01/21 00:04:30;;;;;;;;;;;5.00;92.20;;;;;;5056633;28;19920;-90
2021/01/21 00:06:56;;;;;;;;;;;5.00;91.80;;;;;;5056979;28;19913;-91
2021/01/21 00:09:22;;;;;;;;;;;5.00;91.80;;;;;;5074941;28;19912;-89
2021/01/21 00:11:47;;;;;;;;;;;5.00;91.50;;;;;;5074867;28;19908;-90
2021/01/21 00:14:13;;;;;;;;;;;5.00;92.40;;;;;;5057370;28;19908;-89
2021/01/21 00:16:38;;;;;;;;;;;5.00;91.40;;;;;;5044405;28;19909;-90
2021/01/21 00:19:04;;;;;;;;;;;5.10;91.10;;;;;;5038187;28;19935;-89
2021/01/21 00:21:30;;;;;;;;;;;5.00;92.00;;;;;;5064903;28;19909;-89
2021/01/21 00:23:58;;;;;;;;;;;5.20;91.30;;;;;;5056374;28;19908;-89
2021/01/21 00:26:24;;;;;;;;;;;5.10;91.20;;;;;;5057218;28;19912;-90
2021/01/21 00:28:49;;;;;;;;;;;5.10;91.40;;;;;;5057053;28;19913;-90
2021/01/21 00:31:15;;;;;;;;;;;5.00;92.10;;;;;;5057149;28;19935;-91
2021/01/21 00:33:41;;;;;;;;;;;5.10;91.50;;;;;;5056928;28;19919;-90
2021/01/21 00:36:06;;;;;;;;;;;5.00;91.50;;;;;;5042285;28;20351;-90
2021/01/21 00:38:32;;;;;;;;;;;5.20;90.80;;;;;;5056923;28;19916;-88
2021/01/21 00:40:58;;;;;;;;;;;5.10;91.90;;;;;;5056120;28;19944;-91
2021/01/21 00:43:23;;;;;;;;;;;5.10;91.20;;;;;;5178306;22;19924;-79
2021/01/21 00:45:51;;;;;;;;;;;5.10;91.70;;;;;;5074291;28;20293;-78
2021/01/21 00:48:17;;;;;;;;;;;5.10;91.30;;;;;;5074430;28;19920;-79
2021/01/21 00:50:43;;;;;;;;;;;5.10;91.20;;;;;;5074538;28;19951;-80
2021/01/21 00:53:08;;;;;;;;;;;5.10;91.60;;;;;;5077877;28;19940;-80
2021/01/21 00:55:34;;;;;;;;;;;5.00;92.10;;;;;;5074300;28;19978;-79
2021/01/21 00:57:59;;;;;;;;;;;5.00;91.40;;;;;;5074459;28;20423;-80
2021/01/21 01:00:25;;;;;;;;;;;5.00;91.60;;;;;;5092222;28;19908;-77
2021/01/21 01:02:50;;;;;;;;;;;5.10;91.90;;;;;;5074301;28;19915;-80
2021/01/21 01:05:18;;;;;;;;;;;5.00;91.50;;;;;;5074079;28;19920;-79
2021/01/21 01:07:43;;;;;;;;;;;5.10;90.90;;;;;;5065944;28;19913;-80
2021/01/21 01:10:09;;;;;;;;;;;5.30;90.60;;;;;;5092332;28;19915;-79
2021/01/21 01:12:36;;;;;;;;;;;5.40;90.20;;;;;;5074228;28;19908;-79
2021/01/21 01:15:04;;;;;;;;;;;5.40;90.50;;;;;;5073659;28;19956;-79
2021/01/21 01:17:29;;;;;;;;;;;5.40;90.30;;;;;;5074469;28;19908;-78
2021/01/21 01:19:57;;;;;;;;;;;5.40;90.30;;;;;;5065770;28;19915;-79
2021/01/21 01:22:25;;;;;;;;;;;5.40;89.20;;;;;;5080146;28;19909;-79
2021/01/21 01:24:51;;;;;;;;;;;5.50;89.60;;;;;;5068075;28;20371;-78
2021/01/21 01:27:16;;;;;;;;;;;5.40;90.20;;;;;;5082572;28;20053;-79
2021/01/21 01:29:46;;;;;;;;;;;5.30;90.40;;;;;;5073965;28;20343;-78
2021/01/21 01:32:11;;;;;;;;;;;5.40;89.90;;;;;;5074164;28;19965;-80
2021/01/21 01:34:39;;;;;;;;;;;5.40;90.20;;;;;;5074757;28;19999;-79
2021/01/21 01:37:05;;;;;;;;;;;5.50;88.70;;;;;;5077989;28;19912;-78
2021/01/21 01:39:33;;;;;;;;;;;5.50;89.20;;;;;;5077461;28;19915;-79
2021/01/21 01:41:58;;;;;;;;;;;5.50;89.80;;;;;;5077883;28;19912;-78
2021/01/21 01:44:26;;;;;;;;;;;5.50;91.40;;;;;;5077264;28;20371;-81
2021/01/21 01:46:53;;;;;;;;;;;5.40;90.10;;;;;;5077629;28;20367;-78
2021/01/21 01:49:21;;;;;;;;;;;5.50;90.70;;;;;;5077873;28;19916;-78
2021/01/21 01:51:46;;;;;;;;;;;5.50;89.20;;;;;;5077491;28;19950;-80
2021/01/21 01:54:14;;;;;;;;;;;5.50;88.90;;;;;;5077542;28;19908;-80
2021/01/21 01:56:40;;;;;;;;;;;5.50;89.40;;;;;;5077326;28;19909;-80
2021/01/21 01:59:08;;;;;;;;;;;5.50;89.60;;;;;;5077784;28;19915;-79
2021/01/21 02:01:36;;;;;;;;;;;5.50;88.40;;;;;;5077182;28;19923;-78
2021/01/21 02:04:01;;;;;;;;;;;5.60;87.10;;;;;;5077593;28;20279;-79
2021/01/21 02:06:27;;;;;;;;;;;5.60;88.00;;;;;;5077064;28;19916;-78
2021/01/21 02:08:53;;;;;;;;;;;5.60;88.80;;;;;;5077192;28;19912;-81
2021/01/21 02:11:42;;;;;;;;;;;5.60;87.50;;;;;;5077023;28;20321;-79
2021/01/21 02:14:16;;;;;;;;;;;5.70;85.60;;;;;;5077389;28;19908;-79
2021/01/21 02:17:00;;;;;;;;;;;5.90;84.90;;;;;;5095234;28;19908;-79
2021/01/21 02:19:48;;;;;;;;;;;6.00;82.80;;;;;;5064539;28;20412;-80
2021/01/21 02:22:33;;;;;;;;;;;6.00;82.70;;;;;;5077312;28;19940;-79
2021/01/21 02:25:07;;;;;;;;;;;6.10;83.80;;;;;;5076820;28;19912;-79
2021/01/21 02:27:45;;;;;;;;;;;6.40;81.20;;;;;;5076813;28;19951;-79
2021/01/21 02:30:16;;;;;;;;;;;6.40;81.40;;;;;;5076659;28;19912;-79
2021/01/21 02:32:56;;;;;;;;;;;6.30;82.40;;;;;;5077422;28;19915;-80
2021/01/21 02:35:22;;;;;;;;;;;6.30;82.40;;;;;;5076626;28;19914;-78
2021/01/21 02:37:51;;;;;;;;;;;6.30;80.90;;;;;;5077036;28;19950;-77
2021/01/21 02:40:17;;;;;;;;;;;6.40;81.20;;;;;;5076971;28;20335;-77
2021/01/21 02:42:47;;;;;;;;;;;6.50;80.20;;;;;;5076379;28;19926;-79
2021/01/21 02:45:12;;;;;;;;;;;6.40;80.70;;;;;;5076447;28;19912;-79
2021/01/21 02:47:38;;;;;;;;;;;6.30;81.50;;;;;;5076215;28;20322;-79
2021/01/21 02:50:04;;;;;;;;;;;6.30;82.10;;;;;;5076294;28;20317;-79
2021/01/21 02:52:36;;;;;;;;;;;6.30;80.50;;;;;;5076824;28;19915;-80
2021/01/21 02:55:11;;;;;;;;;;;6.40;81.50;;;;;;5076142;28;19915;-78
2021/01/21 02:57:42;;;;;;;;;;;6.40;81.70;;;;;;5076792;28;20367;-78
2021/01/21 03:00:11;;;;;;;;;;;6.40;82.50;;;;;;5076229;28;20255;-78
2021/01/21 03:02:44;;;;;;;;;;;6.40;82.20;;;;;;5076329;28;19915;-79
2021/01/21 03:05:12;;;;;;;;;;;6.30;81.30;;;;;;5075783;28;19912;-79
2021/01/21 03:07:39;;;;;;;;;;;6.30;82.50;;;;;;5076434;28;20041;-78
2021/01/21 03:10:05;;;;;;;;;;;6.30;80.90;;;;;;5076271;28;20286;-79
2021/01/21 03:12:33;;;;;;;;;;;6.40;80.00;;;;;;5076032;28;19908;-79
2021/01/21 03:14:59;;;;;;;;;;;6.50;78.80;;;;;;5075848;28;20007;-78
2021/01/21 03:17:28;;;;;;;;;;;6.70;77.40;;;;;;5076010;28;19962;-78
2021/01/21 03:19:54;;;;;;;;;;;6.70;78.60;;;;;;5075727;28;19981;-81
2021/01/21 03:22:19;;;;;;;;;;;6.60;78.60;;;;;;5075762;28;19908;-79
2021/01/21 03:24:45;;;;;;;;;;;6.70;78.40;;;;;;5075998;28;19966;-77
2021/01/21 03:27:11;;;;;;;;;;;6.60;78.60;;;;;;5075887;28;19919;-79
2021/01/21 03:29:37;;;;;;;;;;;6.70;79.30;;;;;;5075443;28;19912;-78
2021/01/21 03:32:05;;;;;;;;;;;6.60;80.10;;;;;;5075825;28;19914;-79
2021/01/21 03:34:30;;;;;;;;;;;6.70;78.20;;;;;;5075517;28;20366;-77
2021/01/21 03:36:56;;;;;;;;;;;6.90;77.80;;;;;;5075577;28;19915;-78
2021/01/21 03:39:22;;;;;;;;;;;6.90;75.70;;;;;;5075404;28;19908;-79
2021/01/21 03:41:51;;;;;;;;;;;7.00;75.40;;;;;;5075555;28;19915;-79
2021/01/21 03:44:16;;;;;;;;;;;7.10;76.60;;;;;;5075410;28;19920;-81
2021/01/21 03:46:42;;;;;;;;;;;7.00;77.00;;;;;;5075002;28;19912;-76
2021/01/21 03:49:08;;;;;;;;;;;7.00;77.80;;;;;;5075498;28;19916;-80
2021/01/21 03:51:33;;;;;;;;;;;7.00;79.20;;;;;;5074922;28;20010;-79
2021/01/21 03:53:59;;;;;;;;;;;7.00;76.00;;;;;;5075747;28;20573;-79
2021/01/21 03:56:24;;;;;;;;;;;7.10;74.40;;;;;;5075251;28;19908;-78
2021/01/21 03:58:50;;;;;;;;;;;7.20;74.00;;;;;;5075118;28;20016;-79
2021/01/21 04:01:15;;;;;;;;;;;7.20;74.50;;;;;;5075416;28;20166;-80
2021/01/21 04:03:41;;;;;;;;;;;7.40;72.30;;;;;;5075223;28;19947;-79
2021/01/21 04:06:06;;;;;;;;;;;7.60;71.90;;;;;;5075021;28;19912;-78
2021/01/21 04:08:32;;;;;;;;;;;7.50;73.50;;;;;;5075207;28;20325;-78
2021/01/21 04:11:00;;;;;;;;;;;7.50;73.40;;;;;;5075143;28;20340;-78
2021/01/21 04:13:25;;;;;;;;;;;7.40;75.50;;;;;;5093378;28;20394;-76
2021/01/21 04:15:51;;;;;;;;;;;7.30;74.80;;;;;;5075015;28;19955;-78
2021/01/21 04:18:16;;;;;;;;;;;7.40;73.80;;;;;;5093154;28;19950;-78
2021/01/21 04:20:42;;;;;;;;;;;7.50;72.60;;;;;;5074443;28;19961;-78
2021/01/21 04:23:07;;;;;;;;;;;7.50;75.30;;;;;;5074990;28;20097;-77
2021/01/21 04:25:33;;;;;;;;;;;7.40;74.80;;;;;;5074710;28;20007;-81
2021/01/21 04:28:03;;;;;;;;;;;7.50;73.40;;;;;;5057661;28;22435;-78
2021/01/21 04:30:28;;;;;;;;;;;7.40;74.00;;;;;;5074619;28;20389;-77
2021/01/21 04:32:54;;;;;;;;;;;7.40;77.00;;;;;;5075031;28;19908;-77
2021/01/21 04:35:19;;;;;;;;;;;7.30;74.20;;;;;;5074680;28;20347;-78
2021/01/21 04:37:45;;;;;;;;;;;7.30;77.30;;;;;;5074753;28;19915;-80
2021/01/21 04:40:13;;;;;;;;;;;7.30;75.70;;;;;;5074518;28;20328;-77
2021/01/21 04:42:39;;;;;;;;;;;7.30;77.30;;;;;;5074567;28;19912;-77
2021/01/21 04:45:05;;;;;;;;;;;7.30;77.10;;;;;;5074233;28;19919;-77
2021/01/21 04:47:31;;;;;;;;;;;7.20;76.90;;;;;;5074593;28;20427;-79
2021/01/21 04:49:57;;;;;;;;;;;7.20;76.00;;;;;;5092611;28;19909;-79
2021/01/21 04:52:24;;;;;;;;;;;7.30;78.40;;;;;;5092664;28;19915;-79
2021/01/21 04:54:52;;;;;;;;;;;7.30;77.50;;;;;;5167968;22;19924;-85
2021/01/21 04:57:26;;;;;;;;;;;7.20;79.60;;;;;;5076103;28;19915;-85
2021/01/21 04:59:52;;;;;;;;;;;7.10;79.20;;;;;;5075409;28;19909;-84
2021/01/21 05:02:21;;;;;;;;;;;7.10;79.30;;;;;;5075351;28;20321;-85
2021/01/21 05:04:49;;;;;;;;;;;7.10;79.90;;;;;;5074971;28;19962;-84
2021/01/21 05:07:15;;;;;;;;;;;7.00;78.50;;;;;;5075094;28;19912;-84
2021/01/21 05:09:43;;;;;;;;;;;7.00;81.00;;;;;;5071300;28;19931;-84
2021/01/21 05:12:08;;;;;;;;;;;6.90;80.10;;;;;;5078642;28;20307;-85
2021/01/21 05:14:36;;;;;;;;;;;6.90;79.60;;;;;;5078414;28;20015;-84
2021/01/21 05:17:02;;;;;;;;;;;7.00;79.10;;;;;;5071816;28;20283;-85
2021/01/21 05:19:31;;;;;;;;;;;6.90;80.90;;;;;;5079114;28;19919;-85
2021/01/21 05:21:59;;;;;;;;;;;6.90;78.90;;;;;;5079425;28;19918;-85
2021/01/21 05:24:25;;;;;;;;;;;6.80;80.30;;;;;;5079338;28;19916;-85
2021/01/21 05:26:50;;;;;;;;;;;6.80;82.30;;;;;;5079318;28;19965;-85
2021/01/21 05:29:17;;;;;;;;;;;6.80;84.10;;;;;;5079049;28;19912;-84
2021/01/21 05:31:42;;;;;;;;;;;6.70;81.20;;;;;;5082338;28;20431;-84
2021/01/21 05:34:11;;;;;;;;;;;6.70;82.40;;;;;;5087093;28;19908;-84
2021/01/21 05:36:38;;;;;;;;;;;6.90;79.60;;;;;;5078751;28;19908;-84
2021/01/21 05:39:04;;;;;;;;;;;7.00;77.90;;;;;;5079145;28;19942;-84
2021/01/21 05:41:30;;;;;;;;;;;7.20;77.40;;;;;;5078399;28;19908;-85
2021/01/21 05:43:56;;;;;;;;;;;7.30;75.20;;;;;;5090027;28;19942;-85
2021/01/21 05:46:24;;;;;;;;;;;7.30;76.30;;;;;;5078622;28;19912;-85
2021/01/21 05:48:49;;;;;;;;;;;7.50;74.50;;;;;;5083109;28;19912;-85
2021/01/21 05:51:15;;;;;;;;;;;7.60;74.50;;;;;;5085669;28;19908;-84
2021/01/21 05:53:43;;;;;;;;;;;7.80;72.30;;;;;;5078857;28;19915;-85
2021/01/21 05:56:11;;;;;;;;;;;7.90;71.70;;;;;;5078485;28;19908;-85
2021/01/21 05:58:38;;;;;;;;;;;8.10;70.50;;;;;;5078590;28;19908;-85
2021/01/21 06:01:12;;;;;;;;;;;8.10;73.10;;;;;;5078486;28;19915;-85
2021/01/21 06:03:38;;;;;;;;;;;8.10;70.60;;;;;;5174489;22;20326;-77
2021/01/21 06:06:07;;;;;;;;;;;8.10;70.60;;;;;;5077277;28;20061;-76
2021/01/21 06:08:42;;;;;;;;;;;8.30;71.20;;;;;;5095594;28;20294;-78
2021/01/21 06:11:10;;;;;;;;;;;8.30;72.60;;;;;;5077060;28;19915;-77
2021/01/21 06:13:39;;;;;;;;;;;8.40;70.70;;;;;;5095332;28;19908;-76
2021/01/21 06:16:05;;;;;;;;;;;8.60;70.70;;;;;;5095230;28;19931;-77
2021/01/21 06:18:31;;;;;;;;;;;8.50;70.10;;;;;;5077306;28;20061;-78
2021/01/21 06:20:57;;;;;;;;;;;8.40;69.90;;;;;;5075903;28;20398;-77
2021/01/21 06:23:24;;;;;;;;;;;8.40;69.40;;;;;;5077217;28;20268;-79
2021/01/21 06:25:50;;;;;;;;;;;8.60;70.60;;;;;;5076604;28;19914;-78
2021/01/21 06:28:19;;;;;;;;;;;8.70;67.80;;;;;;5067083;28;19919;-78
2021/01/21 06:30:47;;;;;;;;;;;8.70;67.40;;;;;;5069488;28;20007;-77
2021/01/21 06:33:15;;;;;;;;;;;8.90;66.40;;;;;;5076998;28;19908;-77
2021/01/21 06:36:10;;;;;;;;;;;8.90;68.90;;;;;;5076572;28;19914;-78
2021/01/21 06:38:39;;;;;;;;;;;8.70;69.70;;;;;;5048352;28;19908;-78
2021/01/21 06:41:10;;;;;;;;;;;8.90;68.40;;;;;;5070315;28;19912;-78
2021/01/21 06:43:36;;;;;;;;;;;8.70;68.30;;;;;;5076981;28;20003;-78
2021/01/21 06:46:01;;;;;;;;;;;8.60;71.80;;;;;;5064060;28;20329;-79
2021/01/21 06:48:32;;;;;;;;;;;8.50;70.40;;;;;;5056578;28;19920;-78
2021/01/21 06:50:58;;;;;;;;;;;8.60;70.70;;;;;;5067638;28;19908;-79
2021/01/21 06:53:25;;;;;;;;;;;8.60;69.80;;;;;;5076689;28;20007;-78
2021/01/21 06:55:53;;;;;;;;;;;8.70;68.90;;;;;;5076210;28;20158;-79
2021/01/21 06:58:42;;;;;;;;;;;8.60;71.10;;;;;;5094466;28;20472;-77
2021/01/21 07:01:28;;;;;;;;;;;8.50;70.00;;;;;;5051987;28;19955;-77
2021/01/21 07:03:53;;;;;;;;;;;8.50;71.60;;;;;;5053285;28;19920;-78
2021/01/21 07:06:19;;;;;;;;;;;8.50;70.60;;;;;;5052554;28;20284;-78
2021/01/21 07:09:04;;;;;;;;;;;8.40;72.00;;;;;;5052874;28;19919;-77
2021/01/21 07:11:30;;;;;;;;;;;8.40;72.40;;;;;;5052529;28;20016;-77
2021/01/21 07:13:56;;;;;;;;;;;8.60;74.50;;;;;;5053027;28;19991;-77
2021/01/21 07:16:22;;;;;;;;;;;8.70;71.20;;;;;;5052928;28;19908;-77
2021/01/21 07:18:51;;;;;;;;;;;8.60;73.60;;;;;;5039991;28;19913;-78
2021/01/21 07:21:22;;;;;;;;;;;8.50;73.20;;;;;;5044013;28;20432;-78
2021/01/21 07:23:48;;;;;;;;;;;8.40;77.80;;;;;;5049661;28;19954;-79
2021/01/21 07:26:33;;;;;;;;;;;8.60;73.30;;;;;;5052598;28;19923;-77
2021/01/21 07:28:58;;;;;;;;;;;8.60;73.10;;;;;;5042221;28;19917;-78
2021/01/21 07:31:47;;;;;;;;;;;8.80;73.50;;;;;;5046531;28;19916;-78
2021/01/21 07:34:31;;;;;;;;;;;8.70;77.00;;;;;;5040781;28;20408;-78
2021/01/21 07:37:12;;;;;;;;;;;8.60;76.90;;;;;;5032961;28;19909;-77
2021/01/21 07:39:49;;;;;;;;;;;8.70;76.90;;;;;;5047775;28;19909;-77
2021/01/21 07:42:15;;;;;;;;;;;8.70;77.40;;;;;;5052554;28;20004;-77
2021/01/21 07:44:51;;;;;;;;;;;8.80;77.50;;;;;;5051991;28;19948;-77
2021/01/21 07:47:29;;;;;;;;;;;8.80;79.10;;;;;;5044045;28;19917;-78
2021/01/21 07:50:14;;;;;;;;;;;8.70;81.50;;;;;;5025237;28;19967;-79
2021/01/21 07:52:49;;;;;;;;;;;8.70;81.50;;;;;;5031420;28;19913;-77
2021/01/21 07:55:25;;;;;;;;;;;8.70;82.30;;;;;;5031621;28;19981;-77
2021/01/21 07:57:51;;;;;;;;;;;8.80;83.30;;;;;;5024009;28;19916;-78
2021/01/21 08:00:19;;;;;;;;;;;8.90;82.60;;;;;;5028936;28;20466;-79
2021/01/21 08:02:49;;;;;;;;;;;9.00;82.60;;;;;;5051115;28;19920;-78
2021/01/21 08:05:18;;;;;;;;;;;9.00;82.80;;;;;;5054515;28;19915;-80
2021/01/21 08:07:47;;;;;;;;;;;9.10;82.60;;;;;;5055288;28;19912;-78
2021/01/21 08:10:18;;;;;;;;;;;9.00;83.50;;;;;;5054504;28;20007;-79
2021/01/21 08:12:53;;;;;;;;;;;9.10;83.30;;;;;;5050169;28;19980;-79
2021/01/21 08:15:19;;;;;;;;;;;9.20;83.50;;;;;;5052358;28;19919;-78
2021/01/21 08:17:49;;;;;;;;;;;9.30;83.20;;;;;;5069986;28;19908;-78
2021/01/21 08:20:15;;;;;;;;;;;9.30;83.80;;;;;;5053937;28;19916;-80
2021/01/21 08:23:00;;;;;;;;;;;9.40;83.20;;;;;;5068810;28;19909;-79
2021/01/21 08:25:30;;;;;;;;;;;9.40;83.40;;;;;;5072488;28;19908;-78
2021/01/21 08:27:55;;;;;;;;;;;9.50;82.90;;;;;;5072574;28;19951;-80
2021/01/21 08:30:21;;;;;;;;;;;9.60;82.50;;;;;;5051460;28;19909;-78
2021/01/21 08:32:50;;;;;;;;;;;9.60;82.60;;;;;;5054207;28;19908;-78
2021/01/21 08:35:19;;;;;;;;;;;9.60;82.80;;;;;;5054356;28;19909;-79
2021/01/21 08:37:45;;;;;;;;;;;9.70;82.20;;;;;;5054185;28;19927;-79
2021/01/21 08:40:11;;;;;;;;;;;9.70;82.20;;;;;;5052703;28;19913;-79
2021/01/21 08:42:37;;;;;;;;;;;9.70;82.20;;;;;;5054165;28;21400;-78
2021/01/21 08:45:03;;;;;;;;;;;9.70;82.80;;;;;;5048783;28;20278;-79
2021/01/21 08:47:58;;;;;;;;;;;9.70;83.00;;;;;;5052773;28;19924;-78
2021/01/21 08:50:34;;;;;;;;;;;9.80;82.60;;;;;;5049394;28;19913;-78
2021/01/21 08:53:05;;;;;;;;;;;9.80;83.10;;;;;;5054213;28;19916;-78
2021/01/21 08:55:41;;;;;;;;;;;9.80;82.80;;;;;;5053606;28;19909;-78
2021/01/21 08:58:08;;;;;;;;;;;9.80;83.00;;;;;;5054640;28;19931;-79
2021/01/21 09:00:34;;;;;;;;;;;9.80;82.90;;;;;;5071745;28;20375;-79
2021/01/21 09:03:00;;;;;;;;;;;9.90;82.60;;;;;;5053757;28;20347;-78
2021/01/21 09:05:26;;;;;;;;;;;9.80;83.30;;;;;;5053499;28;19915;-78
2021/01/21 09:08:01;;;;;;;;;;;9.80;84.00;;;;;;5054208;28;20394;-78
2021/01/21 09:10:35;;;;;;;;;;;9.80;83.60;;;;;;5071834;28;19985;-78
2021/01/21 09:13:01;;;;;;;;;;;9.90;83.90;;;;;;5072330;28;19908;-78
2021/01/21 09:15:26;;;;;;;;;;;10.00;83.50;;;;;;5054237;28;20035;-78
2021/01/21 09:18:07;;;;;;;;;;;10.00;84.40;;;;;;5072516;28;19915;-78
2021/01/21 09:20:32;;;;;;;;;;;10.00;83.50;;;;;;5054452;28;19908;-79
2021/01/21 09:23:19;;;;;;;;;;;10.10;83.30;;;;;;5054675;28;20051;-79
2021/01/21 09:25:45;;;;;;;;;;;10.10;83.30;;;;;;5053584;28;19924;-78
2021/01/21 09:28:14;;;;;;;;;;;10.10;82.90;;;;;;5051203;28;19917;-78
2021/01/21 09:30:40;;;;;;;;;;;10.10;83.20;;;;;;5050993;28;19916;-78
2021/01/21 09:33:08;;;;;;;;;;;10.10;83.10;;;;;;5071816;28;20135;-79
2021/01/21 09:35:37;;;;;;;;;;;10.20;83.00;;;;;;5053743;28;19908;-77
2021/01/21 09:38:05;;;;;;;;;;;10.10;84.30;;;;;;5054160;28;19908;-79
2021/01/21 09:40:31;;;;;;;;;;;10.00;84.10;;;;;;5053910;28;19958;-77
2021/01/21 09:42:58;;;;;;;;;;;10.00;83.90;;;;;;5054087;28;19999;-78
2021/01/21 09:45:25;;;;;;;;;;;10.00;84.20;;;;;;5043283;28;19920;-78
2021/01/21 09:47:50;;;;;;;;;;;9.90;85.10;;;;;;5054291;28;19912;-79
2021/01/21 09:50:16;;;;;;;;;;;10.00;84.80;;;;;;5053887;28;19959;-77
2021/01/21 09:52:42;;;;;;;;;;;10.00;84.50;;;;;;5063882;28;19909;-78
2021/01/21 09:55:08;;;;;;;;;;;10.00;85.10;;;;;;5091784;28;19912;-78
2021/01/21 09:57:36;;;;;;;;;;;10.10;84.40;;;;;;5077809;28;19908;-79
2021/01/21 10:00:02;;;;;;;;;;;10.30;84.00;;;;;;5077624;28;20536;-78
2021/01/21 10:02:28;;;;;;;;;;;10.30;84.30;;;;;;5077720;28;20315;-78
2021/01/21 10:04:53;;;;;;;;;;;10.40;85.70;;;;;;5070165;28;19913;-79
2021/01/21 10:07:19;;;;;;;;;;;10.40;84.20;;;;;;5059343;28;20107;-78
2021/01/21 10:09:45;;;;;;;;;;;10.50;83.90;;;;;;5057490;28;19917;-78
2021/01/21 10:12:13;;;;;;;;;;;10.50;85.40;;;;;;5057640;28;19908;-79
2021/01/21 10:14:39;;;;;;;;;;;10.60;83.60;;;;;;5057122;28;19912;-79
2021/01/21 10:17:07;;;;;;;;;;;10.80;83.00;;;;;;5075598;28;20083;-78
2021/01/21 10:19:33;;;;;;;;;;;10.90;82.30;;;;;;5077415;28;20366;-78
2021/01/21 10:22:05;;;;;;;;;;;10.80;82.60;;;;;;5171026;22;19955;-88
2021/01/21 10:24:31;;;;;;;;;;;10.90;82.60;;;;;;5035482;28;19916;-90
2021/01/21 10:26:56;;;;;;;;;;;11.00;83.80;;;;;;5037122;28;19913;-90
2021/01/21 10:29:22;;;;;;;;;;;11.00;84.00;;;;;;5034310;28;19908;-90
2021/01/21 10:31:50;;;;;;;;;;;11.20;82.90;;;;;;5037703;28;20349;-91
2021/01/21 10:34:16;;;;;;;;;;;11.30;82.10;;;;;;5032825;28;19909;-91
2021/01/21 10:36:41;;;;;;;;;;;11.40;82.00;;;;;;5052321;28;19920;-89
2021/01/21 10:39:07;;;;;;;;;;;11.40;83.00;;;;;;5032584;28;20253;-90
2021/01/21 10:41:32;;;;;;;;;;;11.60;81.90;;;;;;5046788;28;19999;-90
2021/01/21 10:43:58;;;;;;;;;;;11.60;81.70;;;;;;5031413;28;19913;-91
2021/01/21 10:46:24;;;;;;;;;;;11.60;82.90;;;;;;5037587;28;19916;-92
2021/01/21 10:48:50;;;;;;;;;;;11.70;82.30;;;;;;5038750;28;19913;-90
2021/01/21 10:51:16;;;;;;;;;;;11.80;81.40;;;;;;5026932;28;19909;-89
2021/01/21 10:53:45;;;;;;;;;;;11.90;81.10;;;;;;5036181;28;19908;-89
2021/01/21 10:56:10;;;;;;;;;;;11.90;80.80;;;;;;5038539;28;19967;-90
2021/01/21 10:58:36;;;;;;;;;;;11.90;81.60;;;;;;5038424;28;19917;-90
2021/01/21 11:01:01;;;;;;;;;;;11.90;80.60;;;;;;5038149;28;19916;-90
2021/01/21 11:03:27;;;;;;;;;;;11.90;81.00;;;;;;5038221;28;20360;-92
2021/01/21 11:05:53;;;;;;;;;;;12.00;81.60;;;;;;5038281;28;19909;-90
2021/01/21 11:08:18;;;;;;;;;;;12.10;81.60;;;;;;5037754;28;19913;-91
2021/01/21 11:10:45;;;;;;;;;;;12.10;81.90;;;;;;5038245;28;19967;-91
2021/01/21 11:13:17;;;;;;;;;;;12.10;81.70;;;;;;5037839;28;19909;-90
2021/01/21 11:15:42;;;;;;;;;;;12.00;82.40;;;;;;5037895;28;19920;-91
2021/01/21 11:18:08;;;;;;;;;;;12.00;82.90;;;;;;5037823;28;19917;-91
2021/01/21 11:20:34;;;;;;;;;;;12.10;82.90;;;;;;5037472;28;19924;-91
2021/01/21 11:23:02;;;;;;;;;;;12.10;82.80;;;;;;5056195;28;19974;-91
2021/01/21 11:25:28;;;;;;;;;;;12.10;82.60;;;;;;5057808;28;20391;-90
2021/01/21 11:27:56;;;;;;;;;;;12.10;83.40;;;;;;5057598;28;19950;-90
2021/01/21 11:30:22;;;;;;;;;;;12.10;86.20;;;;;;5074066;28;19914;-90
2021/01/21 11:32:47;;;;;;;;;;;12.10;85.60;;;;;;5062027;28;19908;-90
2021/01/21 11:35:13;;;;;;;;;;;12.10;84.40;;;;;;5057167;28;19909;-90
2021/01/21 11:37:41;;;;;;;;;;;12.20;83.60;;;;;;5057220;28;19952;-92
2021/01/21 11:40:13;;;;;;;;;;;12.10;85.70;;;;;;5057246;28;19918;-91
2021/01/21 11:42:50;;;;;;;;;;;12.00;88.10;;;;;;5057634;28;19908;-90
2021/01/21 11:45:16;;;;;;;;;;;12.00;89.20;;;;;;5057005;28;19935;-94
2021/01/21 11:47:42;;;;;;;;;;;12.10;88.50;;;;;;5057547;28;20325;-90
2021/01/21 11:50:11;;;;;;;;;;;12.10;87.60;;;;;;5057835;28;19912;-90
2021/01/21 11:52:36;;;;;;;;;;;12.10;87.00;;;;;;5066247;28;19908;-91
2021/01/21 11:55:02;;;;;;;;;;;12.00;86.60;;;;;;5056606;28;19976;-91
2021/01/21 11:57:28;;;;;;;;;;;12.10;86.20;;;;;;5068392;28;19961;-90
2021/01/21 11:59:53;;;;;;;;;;;12.20;86.30;;;;;;5042583;28;19996;-88
2021/01/21 12:02:19;;;;;;;;;;;12.10;86.90;;;;;;5056770;28;19915;-91
2021/01/21 12:04:45;;;;;;;;;;;12.20;86.00;;;;;;5056786;28;19912;-88
2021/01/21 12:07:13;;;;;;;;;;;12.20;87.50;;;;;;5070717;28;19908;-91
2021/01/21 12:09:38;;;;;;;;;;;12.20;86.00;;;;;;5056717;28;19909;-89
2021/01/21 12:12:04;;;;;;;;;;;12.30;87.20;;;;;;5056509;28;19931;-89
2021/01/21 12:14:30;;;;;;;;;;;12.30;85.90;;;;;;5056289;28;19908;-89
2021/01/21 12:16:56;;;;;;;;;;;12.30;85.10;;;;;;5068004;28;19913;-90
2021/01/21 12:19:21;;;;;;;;;;;12.20;84.80;;;;;;5056049;28;19913;-88
2021/01/21 12:21:47;;;;;;;;;;;12.20;87.00;;;;;;5052157;28;19921;-90
2021/01/21 12:24:13;;;;;;;;;;;12.10;85.90;;;;;;5028078;28;19968;-91
2021/01/21 12:26:40;;;;;;;;;;;12.10;86.50;;;;;;5030282;28;19932;-91
2021/01/21 12:29:06;;;;;;;;;;;12.20;85.60;;;;;;5033283;28;19912;-91
2021/01/21 12:31:31;;;;;;;;;;;12.10;85.90;;;;;;5032597;28;19919;-91
2021/01/21 12:33:59;;;;;;;;;;;12.10;85.20;;;;;;5033525;28;19912;-93
2021/01/21 12:36:24;;;;;;;;;;;12.10;87.20;;;;;;5032763;28;20002;-89
2021/01/21 12:38:51;;;;;;;;;;;12.10;85.20;;;;;;5033462;28;20039;-90
2021/01/21 12:41:19;;;;;;;;;;;12.10;84.20;;;;;;5032314;28;20490;-90
2021/01/21 12:43:48;;;;;;;;;;;12.20;84.40;;;;;;5032956;28;19967;-93
2021/01/21 12:46:15;;;;;;;;;;;12.20;83.70;;;;;;5033794;28;19909;-90
2021/01/21 12:48:48;;;;;;;;;;;12.30;85.10;;;;;;5019922;28;20351;-89
2021/01/21 12:51:14;;;;;;;;;;;12.40;84.40;;;;;;5032949;28;19935;-91
2021/01/21 12:53:40;;;;;;;;;;;12.40;83.50;;;;;;5019668;28;19913;-91
2021/01/21 12:56:06;;;;;;;;;;;12.40;83.90;;;;;;5032966;28;19916;-87
2021/01/21 12:58:31;;;;;;;;;;;12.40;83.60;;;;;;5033219;28;19939;-91
2021/01/21 13:00:57;;;;;;;;;;;12.30;82.90;;;;;;5032742;28;19916;-91
2021/01/21 13:03:22;;;;;;;;;;;12.40;82.30;;;;;;5033256;28;20031;-91
2021/01/21 13:05:48;;;;;;;;;;;12.40;83.40;;;;;;5032426;28;19916;-92
2021/01/21 13:08:13;;;;;;;;;;;12.30;83.20;;;;;;5032765;28;19959;-92
2021/01/21 13:10:39;;;;;;;;;;;12.30;82.20;;;;;;5032819;28;19920;-90
2021/01/21 13:13:05;;;;;;;;;;;12.30;81.30;;;;;;5033173;28;19924;-89
2021/01/21 13:15:31;;;;;;;;;;;12.30;82.60;;;;;;5031522;28;19913;-90
2021/01/21 13:17:57;;;;;;;;;;;12.30;81.70;;;;;;5033406;28;19912;-91
2021/01/21 13:20:22;;;;;;;;;;;12.30;83.40;;;;;;5028948;28;19996;-92
2021/01/21 13:22:48;;;;;;;;;;;12.30;83.50;;;;;;5034972;28;19960;-91
2021/01/21 13:25:13;;;;;;;;;;;12.30;83.40;;;;;;5049096;28;19935;-92
2021/01/21 13:27:39;;;;;;;;;;;12.20;83.70;;;;;;5049139;28;19913;-91
2021/01/21 13:30:05;;;;;;;;;;;12.20;84.70;;;;;;5040039;28;19913;-89
2021/01/21 13:32:30;;;;;;;;;;;12.10;84.40;;;;;;5056849;28;20398;-91
2021/01/21 13:34:56;;;;;;;;;;;12.20;83.80;;;;;;5056117;28;19962;-89
2021/01/21 13:37:22;;;;;;;;;;;12.10;83.50;;;;;;5055218;28;20022;-90
2021/01/21 13:39:47;;;;;;;;;;;12.20;83.60;;;;;;5051705;28;19928;-89
2021/01/21 13:42:13;;;;;;;;;;;12.10;83.50;;;;;;5055135;28;19913;-90
2021/01/21 13:44:38;;;;;;;;;;;12.10;84.00;;;;;;5047756;28;19908;-89
2021/01/21 13:47:05;;;;;;;;;;;12.10;83.90;;;;;;5056261;28;19954;-91
2021/01/21 13:49:32;;;;;;;;;;;12.10;83.30;;;;;;5055820;28;19961;-91
2021/01/21 13:51:58;;;;;;;;;;;12.00;84.00;;;;;;5050175;28;19966;-92
2021/01/21 13:54:23;;;;;;;;;;;12.00;83.70;;;;;;5054464;28;19912;-90
2021/01/21 13:56:49;;;;;;;;;;;12.00;84.60;;;;;;5055336;28;19921;-88
2021/01/21 13:59:14;;;;;;;;;;;11.90;84.60;;;;;;5055876;28;19970;-90
2021/01/21 14:01:40;;;;;;;;;;;11.90;85.20;;;;;;5046091;28;20413;-89
2021/01/21 14:04:06;;;;;;;;;;;11.90;86.70;;;;;;5055664;28;19944;-91
2021/01/21 14:06:34;;;;;;;;;;;11.80;87.10;;;;;;5051105;28;20007;-90
2021/01/21 14:09:02;;;;;;;;;;;11.80;87.50;;;;;;5048681;28;19942;-90
2021/01/21 14:11:31;;;;;;;;;;;11.70;88.40;;;;;;5048246;28;19927;-89
2021/01/21 14:14:01;;;;;;;;;;;11.70;90.00;;;;;;5049286;28;19928;-90
2021/01/21 14:16:27;;;;;;;;;;;11.70;90.10;;;;;;5048436;28;20359;-90
2021/01/21 15:12:17;;;;;;;;;;;10.30;99.90;;;;;;5073936;22;20330;-92
2021/01/21 15:14:44;;;;;;;;;;;10.30;99.90;;;;;;5030806;28;19920;-91
2021/01/21 15:17:09;;;;;;;;;;;10.20;99.90;;;;;;5024431;28;20372;-92
2021/01/21 15:19:35;;;;;;;;;;;10.10;99.90;;;;;;5033385;28;19932;-91
2021/01/21 15:22:00;;;;;;;;;;;10.00;99.90;;;;;;5033698;28;19908;-90
2021/01/21 15:24:27;;;;;;;;;;;9.90;99.90;;;;;;5035679;28;19920;-90